createdAt,value
2022-08-25T00:00:07.817Z,0.0
2022-08-25T00:05:09.067Z,0.0
2022-08-25T00:10:08.060Z,0.0
2022-08-25T00:15:07.711Z,0.0
2022-08-25T00:20:08.379Z,0.0
2022-08-25T00:25:08.113Z,0.0
2022-08-25T00:30:07.816Z,0.0
2022-08-25T00:35:08.474Z,0.0
2022-08-25T00:40:08.211Z,0.0
2022-08-25T00:45:07.976Z,0.0
2022-08-25T00:50:07.676Z,0.0
2022-08-25T00:55:08.607Z,0.0
2022-08-25T01:00:11.268Z,0.0
2022-08-25T01:05:07.974Z,0.0
2022-08-25T01:10:07.682Z,0.0
2022-08-25T01:15:08.361Z,0.0
2022-08-25T01:20:08.030Z,0.0
2022-08-25T01:25:07.740Z,0.0
2022-08-25T01:30:08.423Z,0.0
2022-08-25T01:35:08.095Z,0.0
2022-08-25T01:40:07.801Z,0.0
2022-08-25T01:45:08.577Z,0.0
2022-08-25T01:50:08.286Z,0.0
2022-08-25T01:55:07.998Z,0.0
2022-08-25T02:00:07.690Z,0.0
2022-08-25T02:05:08.366Z,0.0
2022-08-25T02:10:08.194Z,0.0
2022-08-25T02:15:07.932Z,0.0
2022-08-25T02:20:08.677Z,0.0
2022-08-25T02:25:08.369Z,0.0
2022-08-25T02:30:08.036Z,0.0
2022-08-25T02:35:07.756Z,0.0
2022-08-25T02:40:08.495Z,0.0
2022-08-25T02:45:08.336Z,0.0
2022-08-25T02:50:08.032Z,0.0
2022-08-25T02:55:07.716Z,0.0
2022-08-25T03:00:08.455Z,0.0
2022-08-25T03:05:08.216Z,0.0
2022-08-25T03:10:07.955Z,0.0
2022-08-25T03:15:09.245Z,0.0
2022-08-25T03:20:07.751Z,0.0
2022-08-25T03:25:08.460Z,0.0
2022-08-25T03:30:08.186Z,0.0
2022-08-25T03:35:07.882Z,0.0
2022-08-25T03:40:08.612Z,0.0
2022-08-25T03:45:08.077Z,0.0
2022-08-25T03:50:10.296Z,0.0
2022-08-25T03:55:07.966Z,0.0
2022-08-25T04:00:07.667Z,0.0
2022-08-25T04:05:02.530Z,0.0
2022-08-25T04:10:02.723Z,1.0
2022-08-25T04:15:02.669Z,0.0
2022-08-25T04:20:02.571Z,0.0
2022-08-25T04:25:03.888Z,0.0
2022-08-25T04:30:02.907Z,0.0
2022-08-25T04:35:02.913Z,0.0
2022-08-25T04:40:02.875Z,0.0
2022-08-25T04:45:01.897Z,0.0
2022-08-25T04:50:02.772Z,0.0
2022-08-25T04:55:02.743Z,0.0
2022-08-25T05:00:02.501Z,0.0
2022-08-25T05:05:02.375Z,0.0
2022-08-25T05:10:02.165Z,0.0
2022-08-25T05:15:02.221Z,0.0
2022-08-25T05:20:02.190Z,0.0
2022-08-25T05:25:02.006Z,0.0
2022-08-25T05:30:01.755Z,0.0
2022-08-25T05:35:02.566Z,0.0
2022-08-25T05:40:02.365Z,0.0
2022-08-25T05:45:02.184Z,0.0
2022-08-25T05:50:01.998Z,0.0
2022-08-25T05:55:02.045Z,0.0
2022-08-25T06:00:01.803Z,0.0
2022-08-25T06:05:02.636Z,0.0
2022-08-25T06:10:02.553Z,0.0
2022-08-25T06:15:02.361Z,0.0
2022-08-25T06:20:02.088Z,0.0
2022-08-25T06:25:02.471Z,0.0
2022-08-25T06:30:04.775Z,0.0
2022-08-25T06:35:01.844Z,0.0
2022-08-25T06:40:02.805Z,0.0
2022-08-25T06:45:02.805Z,0.0
2022-08-25T06:50:02.579Z,0.0
2022-08-25T06:55:02.454Z,1.3
2022-08-25T07:00:02.480Z,1.3
2022-08-25T07:05:01.923Z,1.1
2022-08-25T07:10:02.894Z,1.1
2022-08-25T07:15:19.445Z,0.8
2022-08-25T07:20:02.070Z,0.8
2022-08-25T07:25:02.025Z,0.0
2022-08-25T07:30:02.013Z,0.0
2022-08-25T07:35:02.372Z,0.0
2022-08-25T07:40:02.062Z,0.0
2022-08-25T07:45:02.697Z,0.0
2022-08-25T07:50:02.577Z,0.0
2022-08-25T07:55:02.708Z,1.4
2022-08-25T08:00:02.597Z,1.4
2022-08-25T08:05:01.914Z,0.0
2022-08-25T08:10:33.175Z,0.0
2022-08-25T08:15:02.579Z,0.0
2022-08-25T08:20:02.585Z,0.0
2022-08-25T08:25:02.447Z,0.0
2022-08-25T08:30:02.299Z,0.0
2022-08-25T08:35:02.073Z,0.0
2022-08-25T08:40:03.318Z,0.0
2022-08-25T08:45:09.657Z,0.0
2022-08-25T08:50:03.801Z,0.0
2022-08-25T08:55:01.833Z,0.0
2022-08-25T09:00:02.280Z,0.0
2022-08-25T09:05:02.150Z,0.0
2022-08-25T09:10:02.648Z,0.0
2022-08-25T09:15:02.476Z,0.0
2022-08-25T09:20:02.414Z,0.0
2022-08-25T09:25:03.415Z,0.0
2022-08-25T09:30:05.420Z,0.0
2022-08-25T09:35:02.528Z,0.0
2022-08-25T09:40:02.377Z,1.0
2022-08-25T09:45:02.382Z,1.0
2022-08-25T09:50:05.202Z,0.0
2022-08-25T09:55:02.558Z,0.0
2022-08-25T10:00:02.466Z,1.1
2022-08-25T10:05:02.519Z,1.1
2022-08-25T10:10:02.414Z,0.0
2022-08-25T10:15:02.257Z,0.0
2022-08-25T10:20:02.340Z,0.0
2022-08-25T10:25:04.627Z,0.0
2022-08-25T10:30:02.885Z,0.0
2022-08-25T10:35:12.230Z,0.0
2022-08-25T10:40:02.337Z,0.0
2022-08-25T10:45:02.960Z,0.0
2022-08-25T10:50:02.727Z,0.0
2022-08-25T10:55:12.720Z,0.0
2022-08-25T11:00:02.231Z,0.0
2022-08-25T11:05:02.153Z,0.0
2022-08-25T11:10:02.148Z,0.0
2022-08-25T11:15:02.572Z,0.0
2022-08-25T11:20:01.979Z,0.0
2022-08-25T11:25:11.786Z,0.0
2022-08-25T11:30:01.884Z,0.0
2022-08-25T11:35:02.702Z,0.0
2022-08-25T11:40:02.666Z,0.0
2022-08-25T11:45:02.680Z,0.0
2022-08-25T11:50:02.519Z,0.0
2022-08-25T11:55:02.747Z,0.0
2022-08-25T12:00:12.433Z,0.0
2022-08-25T12:05:02.614Z,0.0
2022-08-25T12:10:01.857Z,0.0
2022-08-25T12:15:02.758Z,0.0
2022-08-25T12:20:01.959Z,0.0
2022-08-25T12:25:01.955Z,0.0
2022-08-25T12:30:18.339Z,0.0
2022-08-25T12:35:02.475Z,0.0
2022-08-25T12:40:02.439Z,0.0
2022-08-25T12:45:02.649Z,0.0
2022-08-25T12:50:02.601Z,0.0
2022-08-25T12:55:02.643Z,1.3
2022-08-25T13:00:05.767Z,0.0
2022-08-25T13:05:02.706Z,0.0
2022-08-25T13:10:02.546Z,0.0
2022-08-25T13:15:02.319Z,0.0
2022-08-25T13:20:02.150Z,0.0
2022-08-25T13:25:02.465Z,0.0
2022-08-25T13:30:03.794Z,0.0
2022-08-25T13:35:01.877Z,0.0
2022-08-25T13:40:12.430Z,0.0
2022-08-25T13:45:02.342Z,0.0
2022-08-25T13:50:02.230Z,1.0
2022-08-25T13:55:04.547Z,1.0
2022-08-25T14:00:02.840Z,0.0
2022-08-25T14:05:02.360Z,0.0
2022-08-25T14:10:02.267Z,0.0
2022-08-25T14:15:02.138Z,0.0
2022-08-25T14:20:02.248Z,0.0
2022-08-25T14:25:02.087Z,0.0
2022-08-25T14:30:01.924Z,0.0
2022-08-25T14:35:09.808Z,0.0
2022-08-25T14:40:02.116Z,0.0
2022-08-25T14:45:02.104Z,0.0
2022-08-25T14:50:01.992Z,0.0
2022-08-25T14:55:02.105Z,0.0
2022-08-25T15:00:01.914Z,0.0
2022-08-25T15:05:01.861Z,0.0
2022-08-25T15:10:02.818Z,0.0
2022-08-25T15:15:02.246Z,0.0
2022-08-25T15:20:02.237Z,0.0
2022-08-25T15:25:02.309Z,0.0
2022-08-25T15:30:02.245Z,0.0
2022-08-25T15:35:02.481Z,0.0
2022-08-25T15:40:02.550Z,0.0
2022-08-25T15:45:01.983Z,0.0
2022-08-25T15:50:02.054Z,0.0
2022-08-25T15:55:01.964Z,1.6
2022-08-25T16:00:02.751Z,1.6
2022-08-25T16:05:01.828Z,1.8
2022-08-25T16:10:01.876Z,1.0
2022-08-25T16:15:02.226Z,0.0
2022-08-25T16:20:02.037Z,0.0
2022-08-25T16:25:02.228Z,0.0
2022-08-25T16:30:01.998Z,0.0
2022-08-25T16:35:01.920Z,0.0
2022-08-25T16:40:02.788Z,1.2
2022-08-25T16:45:02.631Z,1.2
2022-08-25T16:50:02.329Z,0.0
2022-08-25T16:55:01.860Z,0.0
2022-08-25T17:00:02.607Z,0.0
2022-08-25T17:05:02.443Z,0.0
2022-08-25T17:10:02.287Z,0.0
2022-08-25T17:15:02.232Z,0.0
2022-08-25T17:20:04.805Z,0.0
2022-08-25T17:25:01.821Z,0.0
2022-08-25T17:30:02.098Z,0.0
2022-08-25T17:35:04.465Z,0.0
2022-08-25T17:40:03.536Z,0.0
2022-08-25T17:45:02.590Z,0.0
2022-08-25T17:50:02.424Z,0.0
2022-08-25T17:55:02.736Z,0.0
2022-08-25T18:00:02.612Z,0.0
2022-08-25T18:05:02.524Z,0.0
2022-08-25T18:10:02.453Z,0.0
2022-08-25T18:15:02.511Z,0.0
2022-08-25T18:20:02.588Z,0.0
2022-08-25T18:25:02.005Z,0.0
2022-08-25T18:30:02.052Z,0.0
2022-08-25T18:35:01.823Z,0.0
2022-08-25T18:40:02.873Z,0.0
2022-08-25T18:45:02.737Z,0.0
2022-08-25T18:50:04.490Z,0.0
2022-08-25T18:55:02.658Z,0.0
2022-08-25T19:00:02.417Z,0.0
2022-08-25T19:05:07.677Z,0.0
2022-08-25T19:10:03.364Z,0.0
2022-08-25T19:15:02.207Z,0.0
2022-08-25T19:20:01.798Z,0.0
2022-08-25T19:25:02.154Z,0.0
2022-08-25T19:30:02.003Z,0.0
2022-08-25T19:35:01.783Z,0.0
2022-08-25T19:40:02.867Z,0.0
2022-08-25T19:45:02.208Z,0.0
2022-08-25T19:50:02.011Z,0.0
2022-08-25T19:55:01.863Z,0.0
2022-08-25T20:00:02.763Z,0.0
2022-08-25T20:05:02.508Z,0.0
2022-08-25T20:10:02.343Z,0.0
2022-08-25T20:15:02.084Z,0.0
2022-08-25T20:20:02.102Z,0.0
2022-08-25T20:25:02.585Z,0.0
2022-08-25T20:30:02.790Z,0.0
2022-08-25T20:35:21.705Z,0.0
2022-08-25T20:40:08.568Z,0.0
2022-08-25T20:45:08.367Z,0.0
2022-08-25T20:50:08.113Z,0.0
2022-08-25T20:55:07.819Z,0.0
2022-08-25T21:00:09.122Z,0.0
2022-08-25T21:05:08.230Z,0.0
2022-08-25T21:10:10.536Z,0.0
2022-08-25T21:15:07.933Z,0.0
2022-08-25T21:20:07.700Z,0.0
2022-08-25T21:25:08.363Z,0.0
2022-08-25T21:30:08.086Z,0.0
2022-08-25T21:35:08.069Z,0.0
2022-08-25T21:40:08.755Z,0.0
2022-08-25T21:45:11.322Z,0.0
2022-08-25T21:50:08.150Z,0.0
2022-08-25T21:55:07.863Z,0.0
2022-08-25T22:00:08.625Z,0.0
2022-08-25T22:05:09.312Z,0.0
2022-08-25T22:10:08.414Z,1.1
2022-08-25T22:15:08.526Z,1.1
2022-08-25T22:20:08.232Z,1.1
2022-08-25T22:25:07.751Z,1.1
2022-08-25T22:30:07.895Z,1.0
2022-08-25T22:35:08.414Z,1.0
2022-08-25T22:40:08.426Z,0.0
2022-08-25T22:45:08.154Z,0.0
2022-08-25T22:50:07.847Z,1.3
2022-08-25T22:55:08.010Z,1.3
2022-08-25T23:01:00.926Z,1.6
2022-08-25T23:05:08.611Z,1.6
2022-08-25T23:10:08.344Z,2.1
2022-08-25T23:15:08.041Z,2.1
2022-08-25T23:20:07.709Z,0.0
2022-08-25T23:25:08.495Z,0.0
2022-08-25T23:30:08.224Z,1.7
2022-08-25T23:35:07.764Z,1.7
2022-08-25T23:40:08.535Z,1.5
2022-08-25T23:45:08.335Z,1.5
2022-08-25T23:50:08.036Z,1.5
2022-08-25T23:55:07.722Z,1.5
